SBQV

Details ICAO SBQV (VDC)
Name VITORIA DA CONQUISTA
Region Brazil
Timezone America/Bahia (UTC-3.0)
Plans Departing 11
Arriving 16
Stats Elevation 2,998 ft / 914 m (AMSL)
Location -14.862759° -40.863104°
Runways 1
Magnetic Variation 23.437° W
Sunrise 2018-01-22 08:30:42 UTC / 2018-01-22 05:30:42 Local
Sunset 2018-01-22 21:21:36 UTC / 2018-01-22 18:21:36 Local
Advertisement - Login to hide

Runways

ID Width Length Bearing (true) Bearing (mag) Surface Threshold Offset Overrun Length
15 98 ft / 30 m 5,831 ft / 1,777 m 126.17° 149.61° Asphalt 0 ft / 0 m 175 ft / 53 m
33 98 ft / 30 m 5,831 ft / 1,777 m 306.17° 329.61° Asphalt 0 ft / 0 m 0 ft / 0 m

Map

Weather


0- 5 10 15 20 25 30 35+ Temperature / ° C

Clouds and Precipitation
Forecast for 2018-01-22 12:00 UTC. Updated an hour ago

Ground ~20,000 ft ~40,000 ft Winds

METAR

SBQV 221100Z 09006KT 9999 FEW015 22/17 Q1018

TAF

Not found

Frequencies

Tower 130.30 MHz RDO
Warning: Do not use this data for real-world aviation or navigation. No guarantee of current accuracy is given.